Startpagina
METAR-TAF:

METAR-TAF

Vliegvelden :

Tongatapu, Tonga

breedte: 21-14S, lengte: 175-09W, hoogte: 38 m

Actueel weer

Dit bericht is 1 uur en het 1 minuten geleden gemaakt, om 10:00 UTC
Weinig wind
Temperatuur 26°C
Vochtigheid 79%
Druk 1017 hPa
Zicht 10 km of meer
Weinig wolken op 1600 ft
Gebroken wolken op 11000 ft

METAR: NFTF 261000Z 00000KT 9999 FEW016 BKN110 26/22 Q1017

Tijdstip: 00:01 (11:01 UTC)

Verwachting

Dit bericht is 5 uur en het 34 minuten geleden gemaakt, om 05:27 UTC
Verwachting geldig van 26 om 06 UTC tot 27 om 06 UTC
Wind 8 kt uit het oostzuidoosten
Zicht 10 km of meer
Verspreide wolken op 600 ft
Verspreide wolken op 1600 ft
Gebroken wolken op 10000 ft
lichte regenbuien
Kans 40% :
Tijdelijke
van 26 om 06 UTC tot 26 om 12 UTC
Zicht: 3000 m
Gebroken wolken op 1500 ft
Weinig wolken op 1700 ft, Cumulonimbus.
onweer, regen

TAF: NFTF 260527Z 2606/2706 12008KT 9999 -SHRA SCT006 SCT016 BKN100 PROB40 TEMPO 2606/2612 3000 TSRA BKN015 FEW017CB

Waarnemingen en weersverwachtingen van meer dan 4000 vliegvelden (METAR en TAF).

De beschikbare stations zijn de gele en rode punten op de kaart.

Ga met uw muis naar het station om de naam te zien.

Klik dan om waarnemingen en weersverwachtingen te zien.

kaart wijzigen: klik op de groene knoppen met een zwart kruis om in te zoomen, op de groene knop met een streepje om uit te zoomen of op de groene pijlen voor aangrenzende kaarten.


METAR-TAF: